sensor_id;sensor_type;location;lat;lon;timestamp;P1;durP1;ratioP1;P2;durP2;ratioP2
14306;SDS011;7237;49.500;11.400;2022-09-09T00:00:39;6.00;;;2.17;;
14306;SDS011;7237;49.500;11.400;2022-09-09T00:03:10;4.23;;;2.43;;
14306;SDS011;7237;49.500;11.400;2022-09-09T00:05:39;2.50;;;2.03;;
14306;SDS011;7237;49.500;11.400;2022-09-09T00:08:07;4.83;;;2.33;;
14306;SDS011;7237;49.500;11.400;2022-09-09T00:10:37;3.53;;;2.30;;
14306;SDS011;7237;49.500;11.400;2022-09-09T00:13:10;5.77;;;2.20;;
14306;SDS011;7237;49.500;11.400;2022-09-09T00:15:42;3.97;;;2.20;;
14306;SDS011;7237;49.500;11.400;2022-09-09T00:18:15;3.27;;;1.63;;
14306;SDS011;7237;49.500;11.400;2022-09-09T00:20:45;10.07;;;2.60;;
14306;SDS011;7237;49.500;11.400;2022-09-09T00:23:17;3.47;;;1.97;;
14306;SDS011;7237;49.500;11.400;2022-09-09T00:25:48;4.50;;;2.30;;
14306;SDS011;7237;49.500;11.400;2022-09-09T00:28:18;3.83;;;2.27;;
14306;SDS011;7237;49.500;11.400;2022-09-09T00:30:46;6.60;;;2.83;;
14306;SDS011;7237;49.500;11.400;2022-09-09T00:33:16;5.50;;;2.40;;
14306;SDS011;7237;49.500;11.400;2022-09-09T00:35:47;2.53;;;2.07;;
14306;SDS011;7237;49.500;11.400;2022-09-09T00:38:15;4.77;;;2.47;;
14306;SDS011;7237;49.500;11.400;2022-09-09T00:40:45;8.13;;;2.27;;
14306;SDS011;7237;49.500;11.400;2022-09-09T00:43:24;4.00;;;2.10;;
14306;SDS011;7237;49.500;11.400;2022-09-09T00:45:57;3.00;;;1.93;;
14306;SDS011;7237;49.500;11.400;2022-09-09T00:48:29;7.93;;;2.47;;
14306;SDS011;7237;49.500;11.400;2022-09-09T00:51:02;6.00;;;2.23;;
14306;SDS011;7237;49.500;11.400;2022-09-09T00:53:31;4.10;;;1.90;;
14306;SDS011;7237;49.500;11.400;2022-09-09T00:56:01;5.47;;;2.03;;
14306;SDS011;7237;49.500;11.400;2022-09-09T00:58:29;7.73;;;2.47;;
14306;SDS011;7237;49.500;11.400;2022-09-09T01:00:57;4.97;;;2.13;;
14306;SDS011;7237;49.500;11.400;2022-09-09T01:03:32;4.77;;;2.00;;
14306;SDS011;7237;49.500;11.400;2022-09-09T01:06:01;5.63;;;2.00;;
14306;SDS011;7237;49.500;11.400;2022-09-09T01:11:14;8.63;;;2.27;;
14306;SDS011;7237;49.500;11.400;2022-09-09T01:13:41;3.00;;;1.97;;
14306;SDS011;7237;49.500;11.400;2022-09-09T01:16:11;5.03;;;2.50;;
14306;SDS011;7237;49.500;11.400;2022-09-09T01:18:40;5.83;;;2.30;;
14306;SDS011;7237;49.500;11.400;2022-09-09T01:21:13;7.40;;;2.30;;
14306;SDS011;7237;49.500;11.400;2022-09-09T01:23:45;3.20;;;2.10;;
14306;SDS011;7237;49.500;11.400;2022-09-09T01:26:17;2.30;;;2.00;;
14306;SDS011;7237;49.500;11.400;2022-09-09T01:28:46;5.00;;;2.60;;
14306;SDS011;7237;49.500;11.400;2022-09-09T01:31:14;3.83;;;2.20;;
14306;SDS011;7237;49.500;11.400;2022-09-09T01:33:42;3.47;;;2.27;;
14306;SDS011;7237;49.500;11.400;2022-09-09T01:36:10;5.33;;;2.67;;
14306;SDS011;7237;49.500;11.400;2022-09-09T01:38:38;5.53;;;2.30;;
14306;SDS011;7237;49.500;11.400;2022-09-09T01:41:06;2.70;;;2.50;;
14306;SDS011;7237;49.500;11.400;2022-09-09T01:43:35;4.53;;;2.43;;
14306;SDS011;7237;49.500;11.400;2022-09-09T01:46:02;5.97;;;2.23;;
14306;SDS011;7237;49.500;11.400;2022-09-09T01:48:29;3.77;;;2.33;;
14306;SDS011;7237;49.500;11.400;2022-09-09T01:50:56;4.40;;;2.33;;
14306;SDS011;7237;49.500;11.400;2022-09-09T01:53:23;5.47;;;2.57;;
14306;SDS011;7237;49.500;11.400;2022-09-09T01:55:55;5.83;;;2.10;;
14306;SDS011;7237;49.500;11.400;2022-09-09T01:58:27;6.20;;;2.80;;
14306;SDS011;7237;49.500;11.400;2022-09-09T02:01:02;2.70;;;2.30;;
14306;SDS011;7237;49.500;11.400;2022-09-09T02:03:32;5.97;;;2.50;;
14306;SDS011;7237;49.500;11.400;2022-09-09T02:06:04;7.17;;;2.37;;
14306;SDS011;7237;49.500;11.400;2022-09-09T02:08:36;7.77;;;3.00;;
14306;SDS011;7237;49.500;11.400;2022-09-09T02:11:08;5.33;;;2.20;;
14306;SDS011;7237;49.500;11.400;2022-09-09T02:13:38;3.73;;;2.43;;
14306;SDS011;7237;49.500;11.400;2022-09-09T02:16:08;3.37;;;2.40;;
14306;SDS011;7237;49.500;11.400;2022-09-09T02:18:39;2.50;;;2.30;;
14306;SDS011;7237;49.500;11.400;2022-09-09T02:21:07;3.23;;;2.10;;
14306;SDS011;7237;49.500;11.400;2022-09-09T02:23:35;5.90;;;2.50;;
14306;SDS011;7237;49.500;11.400;2022-09-09T02:26:04;3.63;;;2.47;;
14306;SDS011;7237;49.500;11.400;2022-09-09T02:28:32;6.27;;;2.67;;
14306;SDS011;7237;49.500;11.400;2022-09-09T02:31:01;4.00;;;2.50;;
14306;SDS011;7237;49.500;11.400;2022-09-09T02:33:30;6.03;;;2.40;;
14306;SDS011;7237;49.500;11.400;2022-09-09T02:36:00;4.10;;;2.30;;
14306;SDS011;7237;49.500;11.400;2022-09-09T02:38:29;5.83;;;2.30;;
14306;SDS011;7237;49.500;11.400;2022-09-09T02:40:59;5.33;;;2.50;;
14306;SDS011;7237;49.500;11.400;2022-09-09T02:43:30;7.70;;;2.50;;
14306;SDS011;7237;49.500;11.400;2022-09-09T02:46:00;5.27;;;2.10;;
14306;SDS011;7237;49.500;11.400;2022-09-09T02:48:32;4.73;;;2.27;;
14306;SDS011;7237;49.500;11.400;2022-09-09T02:51:03;6.33;;;2.80;;
14306;SDS011;7237;49.500;11.400;2022-09-09T02:53:37;4.97;;;2.30;;
14306;SDS011;7237;49.500;11.400;2022-09-09T02:56:07;2.77;;;2.30;;
14306;SDS011;7237;49.500;11.400;2022-09-09T02:58:35;2.53;;;1.83;;
14306;SDS011;7237;49.500;11.400;2022-09-09T03:01:04;5.00;;;2.27;;
14306;SDS011;7237;49.500;11.400;2022-09-09T03:03:32;2.33;;;2.13;;
14306;SDS011;7237;49.500;11.400;2022-09-09T03:06:00;2.87;;;2.00;;
14306;SDS011;7237;49.500;11.400;2022-09-09T03:08:27;4.07;;;2.30;;
14306;SDS011;7237;49.500;11.400;2022-09-09T03:10:54;5.77;;;2.40;;
14306;SDS011;7237;49.500;11.400;2022-09-09T03:13:21;7.33;;;2.07;;
14306;SDS011;7237;49.500;11.400;2022-09-09T03:15:48;5.10;;;2.03;;
14306;SDS011;7237;49.500;11.400;2022-09-09T03:18:16;5.23;;;2.27;;
14306;SDS011;7237;49.500;11.400;2022-09-09T03:20:45;5.73;;;1.97;;
14306;SDS011;7237;49.500;11.400;2022-09-09T03:23:13;6.27;;;2.27;;
14306;SDS011;7237;49.500;11.400;2022-09-09T03:25:45;9.23;;;2.37;;
14306;SDS011;7237;49.500;11.400;2022-09-09T03:28:13;3.90;;;2.03;;
14306;SDS011;7237;49.500;11.400;2022-09-09T03:30:40;2.57;;;2.00;;
14306;SDS011;7237;49.500;11.400;2022-09-09T03:33:07;7.33;;;2.30;;
14306;SDS011;7237;49.500;11.400;2022-09-09T03:35:34;2.90;;;1.90;;
14306;SDS011;7237;49.500;11.400;2022-09-09T03:38:03;4.73;;;2.07;;
14306;SDS011;7237;49.500;11.400;2022-09-09T03:40:30;4.93;;;2.43;;
14306;SDS011;7237;49.500;11.400;2022-09-09T03:42:57;6.07;;;2.60;;
14306;SDS011;7237;49.500;11.400;2022-09-09T03:45:24;4.53;;;1.97;;
14306;SDS011;7237;49.500;11.400;2022-09-09T03:47:51;3.80;;;2.37;;
14306;SDS011;7237;49.500;11.400;2022-09-09T03:50:19;2.93;;;2.10;;
14306;SDS011;7237;49.500;11.400;2022-09-09T03:52:46;4.73;;;2.00;;
14306;SDS011;7237;49.500;11.400;2022-09-09T03:55:14;2.93;;;2.20;;
14306;SDS011;7237;49.500;11.400;2022-09-09T03:57:41;2.57;;;2.10;;
14306;SDS011;7237;49.500;11.400;2022-09-09T04:00:09;5.50;;;2.70;;
14306;SDS011;7237;49.500;11.400;2022-09-09T04:02:36;8.63;;;2.40;;
14306;SDS011;7237;49.500;11.400;2022-09-09T04:05:04;6.33;;;1.97;;
14306;SDS011;7237;49.500;11.400;2022-09-09T04:07:31;5.40;;;2.63;;
14306;SDS011;7237;49.500;11.400;2022-09-09T04:09:58;5.33;;;2.10;;
14306;SDS011;7237;49.500;11.400;2022-09-09T04:12:27;5.13;;;2.20;;
14306;SDS011;7237;49.500;11.400;2022-09-09T04:14:54;7.00;;;2.10;;
14306;SDS011;7237;49.500;11.400;2022-09-09T04:17:21;4.70;;;2.30;;
14306;SDS011;7237;49.500;11.400;2022-09-09T04:19:49;4.07;;;2.33;;
14306;SDS011;7237;49.500;11.400;2022-09-09T04:22:16;5.77;;;2.30;;
14306;SDS011;7237;49.500;11.400;2022-09-09T04:24:43;2.97;;;2.17;;
14306;SDS011;7237;49.500;11.400;2022-09-09T04:27:10;4.93;;;2.17;;
14306;SDS011;7237;49.500;11.400;2022-09-09T04:29:38;6.47;;;2.30;;
14306;SDS011;7237;49.500;11.400;2022-09-09T04:32:06;5.73;;;2.20;;
14306;SDS011;7237;49.500;11.400;2022-09-09T04:34:33;4.67;;;2.00;;
14306;SDS011;7237;49.500;11.400;2022-09-09T04:37:00;6.73;;;2.50;;
14306;SDS011;7237;49.500;11.400;2022-09-09T04:39:27;3.60;;;2.00;;
14306;SDS011;7237;49.500;11.400;2022-09-09T04:41:54;3.40;;;2.10;;
14306;SDS011;7237;49.500;11.400;2022-09-09T04:44:21;3.27;;;2.00;;
14306;SDS011;7237;49.500;11.400;2022-09-09T04:46:49;3.77;;;2.30;;
14306;SDS011;7237;49.500;11.400;2022-09-09T04:49:17;2.40;;;1.80;;
14306;SDS011;7237;49.500;11.400;2022-09-09T04:51:44;5.23;;;2.30;;
14306;SDS011;7237;49.500;11.400;2022-09-09T04:54:12;5.37;;;2.07;;
14306;SDS011;7237;49.500;11.400;2022-09-09T04:56:39;2.93;;;2.20;;
14306;SDS011;7237;49.500;11.400;2022-09-09T04:59:07;4.43;;;2.33;;
14306;SDS011;7237;49.500;11.400;2022-09-09T05:01:34;3.73;;;2.03;;
14306;SDS011;7237;49.500;11.400;2022-09-09T05:04:03;3.03;;;1.90;;
14306;SDS011;7237;49.500;11.400;2022-09-09T05:06:30;6.37;;;2.20;;
14306;SDS011;7237;49.500;11.400;2022-09-09T05:08:57;3.93;;;1.80;;
14306;SDS011;7237;49.500;11.400;2022-09-09T05:11:25;3.93;;;2.00;;
14306;SDS011;7237;49.500;11.400;2022-09-09T05:13:53;4.00;;;2.20;;
14306;SDS011;7237;49.500;11.400;2022-09-09T05:16:21;4.10;;;2.10;;
14306;SDS011;7237;49.500;11.400;2022-09-09T05:18:48;5.70;;;2.00;;
14306;SDS011;7237;49.500;11.400;2022-09-09T05:21:18;3.83;;;1.83;;
14306;SDS011;7237;49.500;11.400;2022-09-09T05:23:45;4.67;;;1.90;;
14306;SDS011;7237;49.500;11.400;2022-09-09T05:26:13;5.67;;;2.00;;
14306;SDS011;7237;49.500;11.400;2022-09-09T05:28:40;1.83;;;1.73;;
14306;SDS011;7237;49.500;11.400;2022-09-09T05:31:08;3.47;;;2.07;;
14306;SDS011;7237;49.500;11.400;2022-09-09T05:33:36;2.93;;;2.13;;
14306;SDS011;7237;49.500;11.400;2022-09-09T05:36:06;2.20;;;1.90;;
14306;SDS011;7237;49.500;11.400;2022-09-09T05:38:34;3.27;;;1.80;;
14306;SDS011;7237;49.500;11.400;2022-09-09T05:41:03;3.77;;;2.10;;
14306;SDS011;7237;49.500;11.400;2022-09-09T05:43:30;7.17;;;2.00;;
14306;SDS011;7237;49.500;11.400;2022-09-09T05:46:01;6.30;;;2.00;;
14306;SDS011;7237;49.500;11.400;2022-09-09T05:48:29;4.07;;;1.57;;
14306;SDS011;7237;49.500;11.400;2022-09-09T05:50:57;2.73;;;1.70;;
14306;SDS011;7237;49.500;11.400;2022-09-09T05:53:24;6.20;;;1.70;;
14306;SDS011;7237;49.500;11.400;2022-09-09T05:55:59;1.90;;;1.67;;
14306;SDS011;7237;49.500;11.400;2022-09-09T05:58:26;2.83;;;1.90;;
14306;SDS011;7237;49.500;11.400;2022-09-09T06:00:59;3.23;;;1.83;;
14306;SDS011;7237;49.500;11.400;2022-09-09T06:03:26;3.90;;;1.67;;
14306;SDS011;7237;49.500;11.400;2022-09-09T06:05:56;3.63;;;1.80;;
14306;SDS011;7237;49.500;11.400;2022-09-09T06:08:24;2.53;;;1.97;;
14306;SDS011;7237;49.500;11.400;2022-09-09T06:10:51;3.23;;;1.90;;
14306;SDS011;7237;49.500;11.400;2022-09-09T06:13:19;6.27;;;1.90;;
14306;SDS011;7237;49.500;11.400;2022-09-09T06:15:50;5.03;;;2.00;;
14306;SDS011;7237;49.500;11.400;2022-09-09T06:18:17;4.07;;;2.10;;
14306;SDS011;7237;49.500;11.400;2022-09-09T06:20:52;3.37;;;1.90;;
14306;SDS011;7237;49.500;11.400;2022-09-09T06:23:19;6.63;;;2.07;;
14306;SDS011;7237;49.500;11.400;2022-09-09T06:25:46;5.83;;;2.20;;
14306;SDS011;7237;49.500;11.400;2022-09-09T06:28:14;5.93;;;2.17;;
14306;SDS011;7237;49.500;11.400;2022-09-09T06:30:42;3.53;;;2.00;;
14306;SDS011;7237;49.500;11.400;2022-09-09T06:33:09;5.70;;;1.77;;
14306;SDS011;7237;49.500;11.400;2022-09-09T06:35:36;3.77;;;1.77;;
14306;SDS011;7237;49.500;11.400;2022-09-09T06:38:03;4.67;;;1.70;;
14306;SDS011;7237;49.500;11.400;2022-09-09T06:40:30;4.27;;;1.60;;
14306;SDS011;7237;49.500;11.400;2022-09-09T06:42:59;2.47;;;1.80;;
14306;SDS011;7237;49.500;11.400;2022-09-09T06:45:26;1.93;;;1.70;;
14306;SDS011;7237;49.500;11.400;2022-09-09T06:47:55;5.90;;;1.60;;
14306;SDS011;7237;49.500;11.400;2022-09-09T06:50:22;3.27;;;2.03;;
14306;SDS011;7237;49.500;11.400;2022-09-09T06:52:49;3.80;;;1.90;;
14306;SDS011;7237;49.500;11.400;2022-09-09T06:55:17;3.33;;;1.93;;
14306;SDS011;7237;49.500;11.400;2022-09-09T06:57:44;3.27;;;1.60;;
14306;SDS011;7237;49.500;11.400;2022-09-09T07:00:11;5.17;;;2.00;;
14306;SDS011;7237;49.500;11.400;2022-09-09T07:02:39;4.70;;;2.00;;
14306;SDS011;7237;49.500;11.400;2022-09-09T07:05:08;2.00;;;1.67;;
14306;SDS011;7237;49.500;11.400;2022-09-09T07:07:35;4.77;;;1.93;;
14306;SDS011;7237;49.500;11.400;2022-09-09T07:10:03;2.23;;;1.67;;
14306;SDS011;7237;49.500;11.400;2022-09-09T07:12:30;3.80;;;1.67;;
14306;SDS011;7237;49.500;11.400;2022-09-09T07:14:57;4.13;;;1.83;;
14306;SDS011;7237;49.500;11.400;2022-09-09T07:17:24;2.87;;;1.93;;
14306;SDS011;7237;49.500;11.400;2022-09-09T07:19:51;4.10;;;1.87;;
14306;SDS011;7237;49.500;11.400;2022-09-09T07:22:19;1.97;;;1.63;;
14306;SDS011;7237;49.500;11.400;2022-09-09T07:24:47;3.67;;;1.73;;
14306;SDS011;7237;49.500;11.400;2022-09-09T07:27:14;2.37;;;1.70;;
14306;SDS011;7237;49.500;11.400;2022-09-09T07:29:41;1.93;;;1.73;;
14306;SDS011;7237;49.500;11.400;2022-09-09T07:32:10;4.23;;;1.80;;
14306;SDS011;7237;49.500;11.400;2022-09-09T07:34:37;4.28;;;1.58;;
14306;SDS011;7237;49.500;11.400;2022-09-09T07:37:05;2.15;;;1.50;;
14306;SDS011;7237;49.500;11.400;2022-09-09T07:39:33;5.43;;;1.70;;
14306;SDS011;7237;49.500;11.400;2022-09-09T07:42:00;3.20;;;1.80;;
14306;SDS011;7237;49.500;11.400;2022-09-09T07:44:27;3.30;;;1.70;;
14306;SDS011;7237;49.500;11.400;2022-09-09T07:46:54;7.22;;;1.80;;
14306;SDS011;7237;49.500;11.400;2022-09-09T07:49:21;4.65;;;1.50;;
14306;SDS011;7237;49.500;11.400;2022-09-09T07:51:49;4.82;;;1.75;;
14306;SDS011;7237;49.500;11.400;2022-09-09T07:54:17;5.72;;;1.80;;
14306;SDS011;7237;49.500;11.400;2022-09-09T07:56:46;5.30;;;1.55;;
14306;SDS011;7237;49.500;11.400;2022-09-09T07:59:14;3.78;;;1.42;;
14306;SDS011;7237;49.500;11.400;2022-09-09T08:01:42;3.08;;;1.60;;
14306;SDS011;7237;49.500;11.400;2022-09-09T08:04:10;3.88;;;1.60;;
14306;SDS011;7237;49.500;11.400;2022-09-09T08:06:42;2.58;;;1.63;;
14306;SDS011;7237;49.500;11.400;2022-09-09T08:09:09;5.03;;;1.77;;
14306;SDS011;7237;49.500;11.400;2022-09-09T08:11:36;2.20;;;1.40;;
14306;SDS011;7237;49.500;11.400;2022-09-09T08:14:05;4.00;;;1.48;;
14306;SDS011;7237;49.500;11.400;2022-09-09T08:16:34;5.60;;;1.60;;
14306;SDS011;7237;49.500;11.400;2022-09-09T08:19:02;3.65;;;1.25;;
14306;SDS011;7237;49.500;11.400;2022-09-09T08:21:31;5.05;;;1.70;;
14306;SDS011;7237;49.500;11.400;2022-09-09T08:23:58;4.78;;;1.40;;
14306;SDS011;7237;49.500;11.400;2022-09-09T08:26:27;2.00;;;1.40;;
14306;SDS011;7237;49.500;11.400;2022-09-09T08:28:55;3.75;;;1.48;;
14306;SDS011;7237;49.500;11.400;2022-09-09T08:31:24;5.38;;;1.42;;
14306;SDS011;7237;49.500;11.400;2022-09-09T08:33:52;2.97;;;1.30;;
14306;SDS011;7237;49.500;11.400;2022-09-09T08:36:21;6.38;;;1.33;;
14306;SDS011;7237;49.500;11.400;2022-09-09T08:38:48;2.42;;;1.70;;
14306;SDS011;7237;49.500;11.400;2022-09-09T08:41:25;5.38;;;1.50;;
14306;SDS011;7237;49.500;11.400;2022-09-09T08:43:58;3.47;;;1.50;;
14306;SDS011;7237;49.500;11.400;2022-09-09T08:46:30;5.93;;;1.33;;
14306;SDS011;7237;49.500;11.400;2022-09-09T08:48:58;2.05;;;1.10;;
14306;SDS011;7237;49.500;11.400;2022-09-09T08:51:28;1.40;;;1.00;;
14306;SDS011;7237;49.500;11.400;2022-09-09T08:53:58;2.38;;;0.95;;
14306;SDS011;7237;49.500;11.400;2022-09-09T08:56:26;5.50;;;1.30;;
14306;SDS011;7237;49.500;11.400;2022-09-09T08:58:55;5.53;;;1.20;;
14306;SDS011;7237;49.500;11.400;2022-09-09T09:01:34;3.13;;;1.33;;
14306;SDS011;7237;49.500;11.400;2022-09-09T09:04:03;1.67;;;1.02;;
14306;SDS011;7237;49.500;11.400;2022-09-09T09:06:35;2.75;;;1.10;;
14306;SDS011;7237;49.500;11.400;2022-09-09T09:09:07;2.08;;;0.88;;
14306;SDS011;7237;49.500;11.400;2022-09-09T09:11:36;3.20;;;1.40;;
14306;SDS011;7237;49.500;11.400;2022-09-09T09:14:07;1.75;;;0.95;;
14306;SDS011;7237;49.500;11.400;2022-09-09T09:16:38;2.20;;;0.80;;
14306;SDS011;7237;49.500;11.400;2022-09-09T09:19:07;2.63;;;0.70;;
14306;SDS011;7237;49.500;11.400;2022-09-09T09:21:36;1.52;;;0.80;;
14306;SDS011;7237;49.500;11.400;2022-09-09T09:24:07;4.38;;;0.88;;
14306;SDS011;7237;49.500;11.400;2022-09-09T09:26:40;0.98;;;0.68;;
14306;SDS011;7237;49.500;11.400;2022-09-09T09:29:10;4.25;;;1.00;;
14306;SDS011;7237;49.500;11.400;2022-09-09T09:31:41;1.95;;;0.90;;
14306;SDS011;7237;49.500;11.400;2022-09-09T09:34:08;2.33;;;1.02;;
14306;SDS011;7237;49.500;11.400;2022-09-09T09:36:39;1.35;;;0.70;;
14306;SDS011;7237;49.500;11.400;2022-09-09T09:39:07;1.63;;;0.90;;
14306;SDS011;7237;49.500;11.400;2022-09-09T09:41:34;1.75;;;0.98;;
14306;SDS011;7237;49.500;11.400;2022-09-09T09:44:04;2.78;;;1.13;;
14306;SDS011;7237;49.500;11.400;2022-09-09T09:46:32;0.80;;;0.80;;
14306;SDS011;7237;49.500;11.400;2022-09-09T09:49:01;1.40;;;0.95;;
14306;SDS011;7237;49.500;11.400;2022-09-09T09:51:30;3.60;;;1.10;;
14306;SDS011;7237;49.500;11.400;2022-09-09T09:54:03;2.42;;;1.10;;
14306;SDS011;7237;49.500;11.400;2022-09-09T09:56:34;4.07;;;1.52;;
14306;SDS011;7237;49.500;11.400;2022-09-09T09:59:02;2.60;;;0.88;;
14306;SDS011;7237;49.500;11.400;2022-09-09T10:01:30;2.88;;;0.98;;
14306;SDS011;7237;49.500;11.400;2022-09-09T10:03:59;2.28;;;0.93;;
14306;SDS011;7237;49.500;11.400;2022-09-09T10:06:32;3.58;;;1.10;;
14306;SDS011;7237;49.500;11.400;2022-09-09T10:08:59;1.90;;;1.00;;
14306;SDS011;7237;49.500;11.400;2022-09-09T10:11:30;1.83;;;0.98;;
14306;SDS011;7237;49.500;11.400;2022-09-09T10:14:04;4.90;;;1.10;;
14306;SDS011;7237;49.500;11.400;2022-09-09T10:16:38;2.42;;;1.10;;
14306;SDS011;7237;49.500;11.400;2022-09-09T10:19:09;2.90;;;1.10;;
14306;SDS011;7237;49.500;11.400;2022-09-09T10:21:51;2.40;;;0.55;;
14306;SDS011;7237;49.500;11.400;2022-09-09T10:24:39;2.38;;;1.10;;
14306;SDS011;7237;49.500;11.400;2022-09-09T10:27:13;1.58;;;1.00;;
14306;SDS011;7237;49.500;11.400;2022-09-09T10:29:53;4.03;;;1.13;;
14306;SDS011;7237;49.500;11.400;2022-09-09T10:32:31;2.40;;;1.00;;
14306;SDS011;7237;49.500;11.400;2022-09-09T10:35:02;1.27;;;0.90;;
14306;SDS011;7237;49.500;11.400;2022-09-09T10:37:35;1.23;;;1.00;;
14306;SDS011;7237;49.500;11.400;2022-09-09T10:40:08;2.63;;;1.23;;
14306;SDS011;7237;49.500;11.400;2022-09-09T10:42:41;3.63;;;1.13;;
14306;SDS011;7237;49.500;11.400;2022-09-09T10:45:13;2.55;;;1.00;;
14306;SDS011;7237;49.500;11.400;2022-09-09T10:47:49;2.45;;;1.10;;
14306;SDS011;7237;49.500;11.400;2022-09-09T10:50:33;1.60;;;1.27;;
14306;SDS011;7237;49.500;11.400;2022-09-09T10:53:07;2.20;;;1.10;;
14306;SDS011;7237;49.500;11.400;2022-09-09T10:55:37;3.72;;;1.25;;
14306;SDS011;7237;49.500;11.400;2022-09-09T10:58:05;2.38;;;1.08;;
14306;SDS011;7237;49.500;11.400;2022-09-09T11:00:37;3.10;;;1.20;;
14306;SDS011;7237;49.500;11.400;2022-09-09T11:03:04;3.17;;;1.10;;
14306;SDS011;7237;49.500;11.400;2022-09-09T11:05:35;2.70;;;1.15;;
14306;SDS011;7237;49.500;11.400;2022-09-09T11:08:08;3.30;;;0.95;;
14306;SDS011;7237;49.500;11.400;2022-09-09T11:10:38;1.80;;;0.88;;
14306;SDS011;7237;49.500;11.400;2022-09-09T11:13:09;2.28;;;1.00;;
14306;SDS011;7237;49.500;11.400;2022-09-09T11:15:39;2.28;;;1.17;;
14306;SDS011;7237;49.500;11.400;2022-09-09T11:18:09;1.50;;;0.90;;
14306;SDS011;7237;49.500;11.400;2022-09-09T11:20:38;3.33;;;1.10;;
14306;SDS011;7237;49.500;11.400;2022-09-09T11:23:09;3.00;;;1.33;;
14306;SDS011;7237;49.500;11.400;2022-09-09T11:25:38;4.50;;;1.30;;
14306;SDS011;7237;49.500;11.400;2022-09-09T11:28:10;3.05;;;1.00;;
14306;SDS011;7237;49.500;11.400;2022-09-09T11:30:45;2.55;;;1.20;;
14306;SDS011;7237;49.500;11.400;2022-09-09T11:36:03;2.30;;;1.10;;
14306;SDS011;7237;49.500;11.400;2022-09-09T11:38:36;2.17;;;1.00;;
14306;SDS011;7237;49.500;11.400;2022-09-09T11:41:07;2.97;;;0.80;;
14306;SDS011;7237;49.500;11.400;2022-09-09T11:43:38;3.55;;;1.08;;
14306;SDS011;7237;49.500;11.400;2022-09-09T11:46:06;2.40;;;0.90;;
14306;SDS011;7237;49.500;11.400;2022-09-09T11:48:35;2.30;;;0.90;;
14306;SDS011;7237;49.500;11.400;2022-09-09T11:51:04;2.13;;;1.05;;
14306;SDS011;7237;49.500;11.400;2022-09-09T11:53:32;2.15;;;0.90;;
14306;SDS011;7237;49.500;11.400;2022-09-09T11:56:02;1.38;;;1.00;;
14306;SDS011;7237;49.500;11.400;2022-09-09T11:58:30;3.28;;;1.27;;
14306;SDS011;7237;49.500;11.400;2022-09-09T12:01:00;3.20;;;1.10;;
14306;SDS011;7237;49.500;11.400;2022-09-09T12:03:32;2.60;;;1.00;;
14306;SDS011;7237;49.500;11.400;2022-09-09T12:06:08;2.25;;;0.88;;
14306;SDS011;7237;49.500;11.400;2022-09-09T12:08:36;6.22;;;1.27;;
14306;SDS011;7237;49.500;11.400;2022-09-09T12:11:04;1.98;;;0.82;;
14306;SDS011;7237;49.500;11.400;2022-09-09T12:13:31;3.30;;;0.90;;
14306;SDS011;7237;49.500;11.400;2022-09-09T12:16:01;5.18;;;1.13;;
14306;SDS011;7237;49.500;11.400;2022-09-09T12:18:32;2.55;;;0.77;;
14306;SDS011;7237;49.500;11.400;2022-09-09T12:21:01;2.60;;;1.08;;
14306;SDS011;7237;49.500;11.400;2022-09-09T12:23:35;3.50;;;1.00;;
14306;SDS011;7237;49.500;11.400;2022-09-09T12:26:09;3.00;;;1.00;;
14306;SDS011;7237;49.500;11.400;2022-09-09T12:28:41;1.83;;;1.13;;
14306;SDS011;7237;49.500;11.400;2022-09-09T12:31:10;0.70;;;0.70;;
14306;SDS011;7237;49.500;11.400;2022-09-09T12:33:42;1.95;;;0.90;;
14306;SDS011;7237;49.500;11.400;2022-09-09T12:36:11;1.48;;;0.70;;
14306;SDS011;7237;49.500;11.400;2022-09-09T12:38:39;2.47;;;0.90;;
14306;SDS011;7237;49.500;11.400;2022-09-09T12:41:17;3.20;;;0.90;;
14306;SDS011;7237;49.500;11.400;2022-09-09T12:43:45;3.28;;;1.02;;
14306;SDS011;7237;49.500;11.400;2022-09-09T12:46:24;2.53;;;0.90;;
14306;SDS011;7237;49.500;11.400;2022-09-09T12:48:54;1.30;;;0.90;;
14306;SDS011;7237;49.500;11.400;2022-09-09T12:51:23;3.55;;;1.08;;
14306;SDS011;7237;49.500;11.400;2022-09-09T12:53:51;1.60;;;0.82;;
14306;SDS011;7237;49.500;11.400;2022-09-09T12:56:20;1.98;;;1.00;;
14306;SDS011;7237;49.500;11.400;2022-09-09T12:58:48;2.15;;;0.90;;
14306;SDS011;7237;49.500;11.400;2022-09-09T13:01:18;3.08;;;0.90;;
14306;SDS011;7237;49.500;11.400;2022-09-09T13:03:47;2.33;;;1.00;;
14306;SDS011;7237;49.500;11.400;2022-09-09T13:06:17;5.53;;;1.08;;
14306;SDS011;7237;49.500;11.400;2022-09-09T13:08:47;3.13;;;1.10;;
14306;SDS011;7237;49.500;11.400;2022-09-09T13:11:15;2.70;;;1.20;;
14306;SDS011;7237;49.500;11.400;2022-09-09T13:13:49;3.97;;;1.10;;
14306;SDS011;7237;49.500;11.400;2022-09-09T13:16:18;3.20;;;1.35;;
14306;SDS011;7237;49.500;11.400;2022-09-09T13:18:46;3.00;;;1.08;;
14306;SDS011;7237;49.500;11.400;2022-09-09T13:21:13;4.60;;;0.88;;
14306;SDS011;7237;49.500;11.400;2022-09-09T13:23:40;4.43;;;1.10;;
14306;SDS011;7237;49.500;11.400;2022-09-09T13:26:20;2.03;;;0.85;;
14306;SDS011;7237;49.500;11.400;2022-09-09T13:28:49;1.92;;;0.98;;
14306;SDS011;7237;49.500;11.400;2022-09-09T13:31:21;1.80;;;1.00;;
14306;SDS011;7237;49.500;11.400;2022-09-09T13:33:48;3.15;;;0.90;;
14306;SDS011;7237;49.500;11.400;2022-09-09T13:36:15;2.33;;;1.08;;
14306;SDS011;7237;49.500;11.400;2022-09-09T13:38:52;5.38;;;1.10;;
14306;SDS011;7237;49.500;11.400;2022-09-09T13:41:20;2.03;;;1.08;;
14306;SDS011;7237;49.500;11.400;2022-09-09T13:43:50;3.03;;;1.13;;
14306;SDS011;7237;49.500;11.400;2022-09-09T13:46:30;4.53;;;1.13;;
14306;SDS011;7237;49.500;11.400;2022-09-09T13:48:58;3.40;;;1.25;;
14306;SDS011;7237;49.500;11.400;2022-09-09T13:51:37;3.22;;;1.17;;
14306;SDS011;7237;49.500;11.400;2022-09-09T13:54:04;3.40;;;0.93;;
14306;SDS011;7237;49.500;11.400;2022-09-09T13:56:32;2.50;;;0.80;;
14306;SDS011;7237;49.500;11.400;2022-09-09T13:59:01;1.38;;;0.82;;
14306;SDS011;7237;49.500;11.400;2022-09-09T14:01:29;2.28;;;1.15;;
14306;SDS011;7237;49.500;11.400;2022-09-09T14:03:56;1.48;;;1.00;;
14306;SDS011;7237;49.500;11.400;2022-09-09T14:06:23;3.90;;;1.35;;
14306;SDS011;7237;49.500;11.400;2022-09-09T14:08:51;1.52;;;0.93;;
14306;SDS011;7237;49.500;11.400;2022-09-09T14:11:19;1.60;;;1.00;;
14306;SDS011;7237;49.500;11.400;2022-09-09T14:13:46;1.73;;;0.90;;
14306;SDS011;7237;49.500;11.400;2022-09-09T14:16:16;4.93;;;1.42;;
14306;SDS011;7237;49.500;11.400;2022-09-09T14:18:43;4.55;;;1.00;;
14306;SDS011;7237;49.500;11.400;2022-09-09T14:21:10;6.13;;;0.80;;
14306;SDS011;7237;49.500;11.400;2022-09-09T14:23:37;3.20;;;1.00;;
14306;SDS011;7237;49.500;11.400;2022-09-09T14:26:05;5.65;;;1.00;;
14306;SDS011;7237;49.500;11.400;2022-09-09T14:28:33;1.52;;;1.00;;
14306;SDS011;7237;49.500;11.400;2022-09-09T14:31:00;8.02;;;1.45;;
14306;SDS011;7237;49.500;11.400;2022-09-09T14:33:29;5.20;;;1.23;;
14306;SDS011;7237;49.500;11.400;2022-09-09T14:35:56;3.58;;;1.77;;
14306;SDS011;7237;49.500;11.400;2022-09-09T14:38:24;4.57;;;1.83;;
14306;SDS011;7237;49.500;11.400;2022-09-09T14:40:51;2.35;;;1.05;;
14306;SDS011;7237;49.500;11.400;2022-09-09T14:43:18;6.88;;;1.95;;
14306;SDS011;7237;49.500;11.400;2022-09-09T14:45:45;3.83;;;1.50;;
14306;SDS011;7237;49.500;11.400;2022-09-09T14:48:13;3.85;;;1.52;;
14306;SDS011;7237;49.500;11.400;2022-09-09T14:50:42;4.78;;;1.52;;
14306;SDS011;7237;49.500;11.400;2022-09-09T14:53:09;3.13;;;1.27;;
14306;SDS011;7237;49.500;11.400;2022-09-09T14:55:36;3.78;;;1.30;;
14306;SDS011;7237;49.500;11.400;2022-09-09T14:58:03;2.70;;;1.17;;
14306;SDS011;7237;49.500;11.400;2022-09-09T15:00:31;4.88;;;1.27;;
14306;SDS011;7237;49.500;11.400;2022-09-09T15:02:59;2.50;;;1.25;;
14306;SDS011;7237;49.500;11.400;2022-09-09T15:05:26;3.45;;;1.45;;